Time;durP1;ratioP1;P1;durP2;ratioP2;P2;SDS_P1;SDS_P2;PMS_P1;PMS_P2;Temp;Humidity;BMP_temperature;BMP_pressure;BME280_temperature;BME280_humidity;BME280_pressure;Samples;Min_cycle;Max_cycle;Signal;HPM_P1;HPM_P2
2024/03/10 00:01:36;;;;;;;;;;;6.10;78.20;;;;;;5078246;28;19930;-77
2024/03/10 00:04:09;;;;;;;;;;;6.00;78.20;;;;;;5076342;28;20401;-74
2024/03/10 00:06:42;;;;;;;;;;;6.00;78.30;;;;;;5079602;28;19943;-73
2024/03/10 00:09:16;;;;;;;;;;;5.90;78.90;;;;;;5079091;28;19924;-70
2024/03/10 00:11:43;;;;;;;;;;;5.90;79.30;;;;;;5079672;28;19932;-73
2024/03/10 00:14:19;;;;;;;;;;;5.90;79.30;;;;;;5079836;28;19928;-77
2024/03/10 00:16:52;;;;;;;;;;;5.90;79.40;;;;;;5082531;28;19928;-78
2024/03/10 00:19:25;;;;;;;;;;;5.90;79.30;;;;;;5079052;28;19951;-76
2024/03/10 00:21:58;;;;;;;;;;;5.90;78.90;;;;;;5079141;28;19935;-77
2024/03/10 00:24:31;;;;;;;;;;;5.90;79.00;;;;;;5082829;28;19924;-76
2024/03/10 00:27:05;;;;;;;;;;;5.90;78.90;;;;;;5080181;28;19924;-76
2024/03/10 00:29:40;;;;;;;;;;;5.80;79.10;;;;;;5076699;28;19929;-77
2024/03/10 00:32:13;;;;;;;;;;;5.80;79.10;;;;;;5078275;28;19936;-78
2024/03/10 00:34:46;;;;;;;;;;;5.80;79.20;;;;;;5080401;28;19928;-78
2024/03/10 00:37:19;;;;;;;;;;;5.80;79.20;;;;;;5079837;28;19934;-60
2024/03/10 00:39:52;;;;;;;;;;;5.80;79.00;;;;;;5075867;28;19935;-61
2024/03/10 00:42:25;;;;;;;;;;;5.70;79.00;;;;;;5078315;28;20013;-59
2024/03/10 00:45:00;;;;;;;;;;;5.70;79.00;;;;;;5075433;28;19928;-60
2024/03/10 00:47:32;;;;;;;;;;;5.70;79.00;;;;;;5075249;28;19935;-59
2024/03/10 00:50:08;;;;;;;;;;;5.70;79.10;;;;;;5077843;28;19992;-61
2024/03/10 00:52:41;;;;;;;;;;;5.60;79.20;;;;;;5078327;28;19959;-61
2024/03/10 00:55:14;;;;;;;;;;;5.60;79.30;;;;;;5077257;28;19928;-61
2024/03/10 00:57:47;;;;;;;;;;;5.60;79.20;;;;;;5078713;28;19932;-58
2024/03/10 01:00:22;;;;;;;;;;;5.50;79.30;;;;;;5078330;28;20011;-59
2024/03/10 01:02:55;;;;;;;;;;;5.50;79.30;;;;;;5077652;28;19928;-60
2024/03/10 01:05:30;;;;;;;;;;;5.50;79.50;;;;;;5076377;28;19931;-60
2024/03/10 01:08:04;;;;;;;;;;;5.50;79.50;;;;;;5076313;28;19925;-59
2024/03/10 01:10:37;;;;;;;;;;;5.40;79.60;;;;;;5074668;28;20561;-61
2024/03/10 01:13:10;;;;;;;;;;;5.40;79.60;;;;;;5076784;28;19928;-60
2024/03/10 01:15:47;;;;;;;;;;;5.40;79.80;;;;;;5076858;28;19925;-59
2024/03/10 01:18:22;;;;;;;;;;;5.40;79.80;;;;;;5079355;28;19932;-60
2024/03/10 01:20:55;;;;;;;;;;;5.40;79.90;;;;;;5075654;28;19929;-59
2024/03/10 01:23:28;;;;;;;;;;;5.30;79.90;;;;;;5072984;28;19928;-59
2024/03/10 01:26:01;;;;;;;;;;;5.30;79.90;;;;;;5077199;28;19928;-60
2024/03/10 01:28:34;;;;;;;;;;;5.30;80.00;;;;;;5077163;28;19997;-61
2024/03/10 01:31:09;;;;;;;;;;;5.30;80.10;;;;;;5077184;28;19935;-60
2024/03/10 01:33:42;;;;;;;;;;;5.30;80.10;;;;;;5077246;28;19931;-59
2024/03/10 01:36:15;;;;;;;;;;;5.30;80.10;;;;;;5074562;28;19931;-60
2024/03/10 01:38:48;;;;;;;;;;;5.40;80.00;;;;;;5074905;28;19924;-59
2024/03/10 01:41:22;;;;;;;;;;;5.30;80.10;;;;;;5074519;28;19935;-60
2024/03/10 01:43:55;;;;;;;;;;;5.30;80.30;;;;;;5077361;28;19931;-59
2024/03/10 01:46:30;;;;;;;;;;;5.30;80.30;;;;;;5076882;28;19928;-59
2024/03/10 01:49:04;;;;;;;;;;;5.30;80.30;;;;;;5077303;28;19931;-59
2024/03/10 01:51:38;;;;;;;;;;;5.30;80.30;;;;;;5074022;28;19959;-60
2024/03/10 01:54:12;;;;;;;;;;;5.20;80.40;;;;;;5076395;28;19981;-57
2024/03/10 01:56:45;;;;;;;;;;;5.20;80.40;;;;;;5076519;28;19931;-60
2024/03/10 01:59:19;;;;;;;;;;;5.30;80.50;;;;;;5077009;28;19931;-58
2024/03/10 02:01:54;;;;;;;;;;;5.30;80.60;;;;;;5078103;28;20398;-57
2024/03/10 02:04:27;;;;;;;;;;;5.30;80.60;;;;;;5075746;28;19931;-57
2024/03/10 02:07:00;;;;;;;;;;;5.30;80.70;;;;;;5076838;28;19938;-58
2024/03/10 02:09:35;;;;;;;;;;;5.40;80.60;;;;;;5076449;28;19946;-59
2024/03/10 02:12:09;;;;;;;;;;;5.40;80.60;;;;;;5074507;28;19935;-58
2024/03/10 02:14:42;;;;;;;;;;;5.40;80.60;;;;;;5074460;28;20375;-59
2024/03/10 02:17:17;;;;;;;;;;;5.40;80.50;;;;;;5076844;28;20264;-59
2024/03/10 02:19:52;;;;;;;;;;;5.50;80.50;;;;;;5075842;28;19934;-58
2024/03/10 02:22:26;;;;;;;;;;;5.50;80.60;;;;;;5071923;28;19925;-57
2024/03/10 02:25:02;;;;;;;;;;;5.40;80.60;;;;;;5077374;28;19935;-58
2024/03/10 02:27:42;;;;;;;;;;;5.50;80.60;;;;;;5073077;28;20382;-58
2024/03/10 02:30:29;;;;;;;;;;;5.40;80.70;;;;;;5076430;28;19924;-62
2024/03/10 02:47:18;;;;;;;;;;;5.20;81.20;;;;;;5075451;28;20042;-58
2024/03/10 02:49:51;;;;;;;;;;;5.20;81.10;;;;;;5076096;28;19932;-58
2024/03/10 02:52:31;;;;;;;;;;;5.20;81.10;;;;;;5076581;28;19928;-58
2024/03/10 02:55:11;;;;;;;;;;;5.10;81.20;;;;;;5073435;28;20347;-59
2024/03/10 02:57:47;;;;;;;;;;;5.10;81.20;;;;;;5075399;28;20024;-62
2024/03/10 03:00:22;;;;;;;;;;;5.10;81.20;;;;;;5074767;28;20018;-61
2024/03/10 03:02:55;;;;;;;;;;;5.10;81.30;;;;;;5076057;28;19960;-62
2024/03/10 03:05:28;;;;;;;;;;;5.00;81.30;;;;;;5073737;28;20395;-60
2024/03/10 03:08:03;;;;;;;;;;;5.10;81.30;;;;;;5078200;28;20374;-60
2024/03/10 03:10:35;;;;;;;;;;;5.10;81.30;;;;;;5080192;28;19924;-61
2024/03/10 03:13:09;;;;;;;;;;;5.20;81.40;;;;;;5080052;28;19967;-61
2024/03/10 03:15:37;;;;;;;;;;;5.20;81.40;;;;;;5073757;28;20375;-61
2024/03/10 03:18:09;;;;;;;;;;;5.10;81.50;;;;;;5079528;28;19935;-61
2024/03/10 03:20:42;;;;;;;;;;;5.10;81.60;;;;;;5079989;28;20302;-62
2024/03/10 03:23:15;;;;;;;;;;;5.10;81.50;;;;;;5073424;28;20002;-61
2024/03/10 03:25:49;;;;;;;;;;;5.00;81.60;;;;;;5075464;28;21686;-61
2024/03/10 03:28:22;;;;;;;;;;;5.00;81.60;;;;;;5077297;28;20310;-61
2024/03/10 03:30:57;;;;;;;;;;;5.00;81.70;;;;;;5079959;28;19924;-61
2024/03/10 03:33:30;;;;;;;;;;;4.90;81.80;;;;;;5079223;28;19978;-61
2024/03/10 03:36:04;;;;;;;;;;;4.90;81.80;;;;;;5081792;28;19929;-60
2024/03/10 03:38:37;;;;;;;;;;;4.90;81.60;;;;;;5076533;28;19931;-62
2024/03/10 03:41:12;;;;;;;;;;;4.90;81.80;;;;;;5079178;28;19924;-62
2024/03/10 03:43:46;;;;;;;;;;;4.90;81.70;;;;;;5076633;28;20354;-61
2024/03/10 03:46:20;;;;;;;;;;;5.00;81.60;;;;;;5080337;28;19928;-62
2024/03/10 03:48:54;;;;;;;;;;;5.00;81.70;;;;;;5077541;28;19928;-62
2024/03/10 03:51:27;;;;;;;;;;;5.00;81.70;;;;;;5079099;28;19928;-63
2024/03/10 03:54:02;;;;;;;;;;;5.10;81.80;;;;;;5078569;28;19928;-61
2024/03/10 03:56:35;;;;;;;;;;;5.10;81.80;;;;;;5078619;28;20379;-61
2024/03/10 03:59:08;;;;;;;;;;;5.10;81.70;;;;;;5079154;28;20039;-62
2024/03/10 04:01:43;;;;;;;;;;;5.10;81.60;;;;;;5070249;28;19925;-61
2024/03/10 04:04:16;;;;;;;;;;;5.10;81.80;;;;;;5076436;28;19924;-62
2024/03/10 04:06:49;;;;;;;;;;;5.00;81.80;;;;;;5076285;28;20424;-61
2024/03/10 04:09:23;;;;;;;;;;;5.00;81.70;;;;;;5078146;28;19924;-61
2024/03/10 04:11:56;;;;;;;;;;;5.00;81.70;;;;;;5073546;28;19924;-66
2024/03/10 04:14:29;;;;;;;;;;;5.00;81.80;;;;;;5076748;28;19928;-60
2024/03/10 04:17:04;;;;;;;;;;;5.00;81.90;;;;;;5075050;28;19924;-62
2024/03/10 04:19:37;;;;;;;;;;;5.10;82.00;;;;;;5077977;28;20410;-60
2024/03/10 04:22:10;;;;;;;;;;;5.20;82.20;;;;;;5073724;28;19930;-61
2024/03/10 04:24:50;;;;;;;;;;;5.20;82.10;;;;;;5078785;28;19989;-59
2024/03/10 04:27:24;;;;;;;;;;;5.20;81.90;;;;;;5076177;28;20007;-61
2024/03/10 05:27:45;;;;;;;;;;;5.50;81.80;;;;;;5076460;28;19990;-65
2024/03/10 05:30:19;;;;;;;;;;;5.50;81.30;;;;;;5074359;28;20376;-64
2024/03/10 05:32:52;;;;;;;;;;;5.60;81.60;;;;;;5076833;28;20371;-64
2024/03/10 05:35:25;;;;;;;;;;;5.50;81.70;;;;;;5077644;28;19952;-65
2024/03/10 05:37:58;;;;;;;;;;;5.60;81.40;;;;;;5077526;28;19936;-64
2024/03/10 05:40:32;;;;;;;;;;;5.60;81.40;;;;;;5074845;28;19964;-65
2024/03/10 05:43:08;;;;;;;;;;;5.60;81.20;;;;;;5075044;28;19925;-65
2024/03/10 05:45:41;;;;;;;;;;;5.60;81.30;;;;;;5082915;28;19935;-64
2024/03/10 05:48:10;;;;;;;;;;;5.60;81.50;;;;;;5075306;28;19928;-63
2024/03/10 05:50:44;;;;;;;;;;;5.60;81.70;;;;;;5074264;28;19935;-65
2024/03/10 05:53:18;;;;;;;;;;;5.60;81.50;;;;;;5077582;28;19924;-65
2024/03/10 05:55:52;;;;;;;;;;;5.70;81.90;;;;;;5077421;28;19932;-64
2024/03/10 05:58:21;;;;;;;;;;;5.70;81.80;;;;;;5077250;28;19924;-64
2024/03/10 06:00:54;;;;;;;;;;;5.70;81.90;;;;;;5076608;28;19963;-64
2024/03/10 06:03:27;;;;;;;;;;;5.70;81.50;;;;;;5077281;28;19943;-65
2024/03/10 06:06:00;;;;;;;;;;;5.70;81.50;;;;;;5076499;28;20371;-64
2024/03/10 06:08:33;;;;;;;;;;;5.70;81.40;;;;;;5074451;28;19924;-64
2024/03/10 06:11:06;;;;;;;;;;;5.70;81.50;;;;;;5077490;28;19991;-63
2024/03/10 06:13:40;;;;;;;;;;;5.70;81.50;;;;;;5076659;28;19924;-64
2024/03/10 06:16:14;;;;;;;;;;;5.80;81.60;;;;;;5076358;28;19935;-66
2024/03/10 06:27:20;;;;;;;;;;;5.80;81.00;;;;;;5077330;28;20326;-64
2024/03/10 06:29:54;;;;;;;;;;;5.80;81.60;;;;;;5077252;28;19928;-61
2024/03/10 06:32:28;;;;;;;;;;;5.80;81.70;;;;;;5075661;28;20290;-58
2024/03/10 06:35:01;;;;;;;;;;;5.80;81.40;;;;;;5076896;28;19947;-59
2024/03/10 06:37:34;;;;;;;;;;;5.90;81.70;;;;;;5077768;28;20328;-60
2024/03/10 06:40:03;;;;;;;;;;;5.90;81.60;;;;;;5093098;28;20294;-59
2024/03/10 06:42:36;;;;;;;;;;;5.90;81.30;;;;;;5077769;28;19924;-60
2024/03/10 06:45:10;;;;;;;;;;;5.90;81.20;;;;;;5081440;28;19931;-59
2024/03/10 06:47:44;;;;;;;;;;;6.00;81.50;;;;;;5077364;28;19994;-59
2024/03/10 06:50:18;;;;;;;;;;;6.00;81.00;;;;;;5082019;28;19925;-60
2024/03/10 06:52:51;;;;;;;;;;;6.00;81.30;;;;;;5079749;28;19970;-60
2024/03/10 06:55:24;;;;;;;;;;;6.00;81.40;;;;;;5078990;28;19929;-59
2024/03/10 06:57:57;;;;;;;;;;;6.10;81.40;;;;;;5077574;28;20001;-59
2024/03/10 07:00:32;;;;;;;;;;;6.20;81.30;;;;;;5078298;28;19935;-60
2024/03/10 07:03:07;;;;;;;;;;;6.20;81.10;;;;;;5080080;28;19939;-58
2024/03/10 07:05:40;;;;;;;;;;;6.20;81.10;;;;;;5077002;28;20353;-59
2024/03/10 07:08:08;;;;;;;;;;;6.30;80.90;;;;;;5079075;28;19932;-60
2024/03/10 07:10:41;;;;;;;;;;;6.40;80.80;;;;;;5079542;28;19973;-59
2024/03/10 07:13:14;;;;;;;;;;;6.40;80.70;;;;;;5078477;28;19924;-61
2024/03/10 07:15:49;;;;;;;;;;;6.50;80.70;;;;;;5075598;28;19935;-60
2024/03/10 07:18:16;;;;;;;;;;;6.50;80.60;;;;;;5078232;28;20260;-59
2024/03/10 07:20:49;;;;;;;;;;;6.60;80.60;;;;;;5078934;28;19933;-59
2024/03/10 07:23:23;;;;;;;;;;;6.60;80.60;;;;;;5079619;28;20467;-59
2024/03/10 07:25:56;;;;;;;;;;;6.70;80.50;;;;;;5078919;28;19925;-59
2024/03/10 07:28:29;;;;;;;;;;;6.70;80.50;;;;;;5078653;28;20383;-59
2024/03/10 07:31:04;;;;;;;;;;;6.80;80.40;;;;;;5080048;28;19951;-58
2024/03/10 07:33:38;;;;;;;;;;;6.80;80.20;;;;;;5079866;28;19978;-59
2024/03/10 07:36:11;;;;;;;;;;;6.90;80.10;;;;;;5078357;28;20009;-60
2024/03/10 07:38:44;;;;;;;;;;;7.00;80.00;;;;;;5077975;28;20298;-58
2024/03/10 07:41:18;;;;;;;;;;;7.00;80.00;;;;;;5079224;28;19936;-59
2024/03/10 07:43:53;;;;;;;;;;;7.10;79.70;;;;;;5079726;28;19938;-59
2024/03/10 07:46:27;;;;;;;;;;;7.20;79.50;;;;;;5080541;28;19932;-59
2024/03/10 07:49:02;;;;;;;;;;;7.20;79.20;;;;;;5079292;28;20354;-60
2024/03/10 07:51:37;;;;;;;;;;;7.30;79.10;;;;;;5075769;28;20359;-60
2024/03/10 07:54:11;;;;;;;;;;;7.40;78.90;;;;;;5076127;28;19924;-58
2024/03/10 07:56:44;;;;;;;;;;;7.40;78.70;;;;;;5075841;28;19924;-59
2024/03/10 07:59:21;;;;;;;;;;;7.60;78.60;;;;;;5078059;28;19950;-60
2024/03/10 08:02:06;;;;;;;;;;;7.60;78.30;;;;;;5079328;28;19929;-60
2024/03/10 08:04:40;;;;;;;;;;;7.70;78.20;;;;;;5079211;28;19929;-59
2024/03/10 08:07:14;;;;;;;;;;;7.70;78.10;;;;;;5078693;28;19925;-61
2024/03/10 08:09:47;;;;;;;;;;;7.80;77.80;;;;;;5078050;28;19924;-59
2024/03/10 08:12:13;;;;;;;;;;;7.90;77.30;;;;;;5079101;28;19967;-63
2024/03/10 08:14:47;;;;;;;;;;;8.00;77.20;;;;;;5077046;28;19931;-59
2024/03/10 08:17:21;;;;;;;;;;;8.10;77.20;;;;;;5081433;28;20463;-59
2024/03/10 08:19:55;;;;;;;;;;;8.10;77.10;;;;;;5075784;28;19985;-60
2024/03/10 08:22:28;;;;;;;;;;;8.20;76.80;;;;;;5076152;28;20023;-61
2024/03/10 08:25:01;;;;;;;;;;;8.20;76.70;;;;;;5074528;28;20580;-59
2024/03/10 08:27:34;;;;;;;;;;;8.30;76.50;;;;;;5078642;28;19972;-59
2024/03/10 08:30:35;;;;;;;;;;;8.30;76.00;;;;;;5078872;28;20278;-59
2024/03/10 08:33:10;;;;;;;;;;;8.40;75.80;;;;;;5077456;28;19931;-59
2024/03/10 08:35:46;;;;;;;;;;;8.50;75.80;;;;;;5076302;28;19924;-61
2024/03/10 08:38:20;;;;;;;;;;;8.50;75.80;;;;;;5079129;28;19924;-58
2024/03/10 08:40:54;;;;;;;;;;;8.60;75.70;;;;;;5075889;28;19932;-60
2024/03/10 08:43:21;;;;;;;;;;;8.60;75.70;;;;;;5077219;28;20011;-60
2024/03/10 08:45:55;;;;;;;;;;;8.60;75.60;;;;;;5077703;28;19986;-60
2024/03/10 08:48:35;;;;;;;;;;;8.70;75.30;;;;;;5075780;28;20019;-62
2024/03/10 08:51:09;;;;;;;;;;;8.70;74.80;;;;;;5077544;28;19977;-63
2024/03/10 08:53:42;;;;;;;;;;;8.80;74.80;;;;;;5078129;28;19938;-61
2024/03/10 08:56:42;;;;;;;;;;;8.90;74.90;;;;;;5076870;28;19928;-62
2024/03/10 08:59:16;;;;;;;;;;;8.90;74.60;;;;;;5075154;28;20384;-64
2024/03/10 09:01:51;;;;;;;;;;;9.00;74.60;;;;;;5077292;28;19950;-61
2024/03/10 09:04:25;;;;;;;;;;;9.00;74.50;;;;;;5077081;28;20425;-62
2024/03/10 09:06:59;;;;;;;;;;;9.10;74.00;;;;;;5078231;28;20011;-60
2024/03/10 09:09:32;;;;;;;;;;;9.10;73.90;;;;;;5076459;28;20375;-61
2024/03/10 09:12:06;;;;;;;;;;;9.10;74.00;;;;;;5093753;28;19981;-61
2024/03/10 09:14:33;;;;;;;;;;;9.10;74.10;;;;;;5076784;28;19934;-61
2024/03/10 09:17:06;;;;;;;;;;;9.20;73.70;;;;;;5077226;28;19924;-62
2024/03/10 09:19:40;;;;;;;;;;;9.30;73.50;;;;;;5073069;28;19924;-61
2024/03/10 09:22:08;;;;;;;;;;;9.40;73.30;;;;;;5075529;28;20419;-62
2024/03/10 09:24:42;;;;;;;;;;;9.50;73.20;;;;;;5077815;28;19925;-60
2024/03/10 09:27:15;;;;;;;;;;;9.60;73.10;;;;;;5076203;28;19924;-61
2024/03/10 09:29:51;;;;;;;;;;;9.80;72.70;;;;;;5074811;28;19928;-60
2024/03/10 09:32:26;;;;;;;;;;;9.90;72.40;;;;;;5078292;28;19928;-62
2024/03/10 09:35:03;;;;;;;;;;;10.10;71.90;;;;;;5078483;28;19924;-62
2024/03/10 09:37:37;;;;;;;;;;;10.20;71.50;;;;;;5077115;28;19924;-61
2024/03/10 09:40:15;;;;;;;;;;;10.20;70.70;;;;;;5076503;28;20367;-62
2024/03/10 09:42:48;;;;;;;;;;;10.40;70.60;;;;;;5078961;28;19985;-61
2024/03/10 09:45:24;;;;;;;;;;;10.50;70.00;;;;;;5078180;28;19928;-61
2024/03/10 09:47:58;;;;;;;;;;;10.60;69.70;;;;;;5076905;28;19924;-62
2024/03/10 09:50:34;;;;;;;;;;;10.70;70.00;;;;;;5077030;28;20034;-61
2024/03/10 09:53:08;;;;;;;;;;;10.70;70.10;;;;;;5077613;28;19928;-62
2024/03/10 09:55:41;;;;;;;;;;;10.70;70.20;;;;;;5075791;28;20408;-62
2024/03/10 09:58:10;;;;;;;;;;;10.80;69.90;;;;;;5075042;28;19934;-72
2024/03/10 10:00:44;;;;;;;;;;;10.80;69.30;;;;;;5077074;28;20478;-72
2024/03/10 10:03:19;;;;;;;;;;;10.90;68.10;;;;;;5077052;28;19928;-71
2024/03/10 10:05:56;;;;;;;;;;;11.00;68.00;;;;;;5076179;28;19983;-73
2024/03/10 10:08:29;;;;;;;;;;;11.00;67.80;;;;;;5078023;28;20418;-72
2024/03/10 10:11:03;;;;;;;;;;;11.10;67.90;;;;;;5073885;28;19963;-74
2024/03/10 10:13:30;;;;;;;;;;;11.20;67.70;;;;;;5077012;28;19928;-72
2024/03/10 10:16:08;;;;;;;;;;;11.20;66.40;;;;;;5078703;28;19924;-75
2024/03/10 10:18:41;;;;;;;;;;;11.30;66.00;;;;;;5076428;28;19924;-73
2024/03/10 10:21:15;;;;;;;;;;;11.40;66.20;;;;;;5080114;28;19934;-72
2024/03/10 10:23:51;;;;;;;;;;;11.40;66.30;;;;;;5081569;28;20020;-70
2024/03/10 10:26:24;;;;;;;;;;;11.40;65.80;;;;;;5081223;28;19924;-72
2024/03/10 10:29:06;;;;;;;;;;;11.50;65.90;;;;;;5080683;28;20022;-70
2024/03/10 10:32:06;;;;;;;;;;;11.50;65.30;;;;;;5080281;28;19924;-73
2024/03/10 10:34:40;;;;;;;;;;;11.70;64.60;;;;;;5078253;28;19932;-74
2024/03/10 10:37:14;;;;;;;;;;;11.80;63.80;;;;;;5078518;28;19936;-74
2024/03/10 10:39:48;;;;;;;;;;;11.90;63.70;;;;;;5080232;28;19963;-72
2024/03/10 10:42:21;;;;;;;;;;;11.90;64.50;;;;;;5081613;28;19931;-72
2024/03/10 10:44:54;;;;;;;;;;;12.00;63.80;;;;;;5080056;28;19924;-71
2024/03/10 10:47:28;;;;;;;;;;;12.10;64.20;;;;;;5081174;28;19931;-72
2024/03/10 10:50:01;;;;;;;;;;;12.20;63.60;;;;;;5080174;28;19924;-72
2024/03/10 10:52:35;;;;;;;;;;;12.20;63.40;;;;;;5080929;28;19935;-71
2024/03/10 10:55:11;;;;;;;;;;;12.20;62.90;;;;;;5077704;28;19975;-73
2024/03/10 10:57:46;;;;;;;;;;;12.20;62.60;;;;;;5079828;28;20009;-72
2024/03/10 11:00:29;;;;;;;;;;;12.30;62.60;;;;;;5074761;28;19928;-71
2024/03/10 11:03:06;;;;;;;;;;;12.40;62.50;;;;;;5078315;28;20015;-72
2024/03/10 11:05:41;;;;;;;;;;;12.40;62.20;;;;;;5080174;28;19928;-73
2024/03/10 11:08:17;;;;;;;;;;;12.40;62.50;;;;;;5080683;28;19956;-61
2024/03/10 11:10:52;;;;;;;;;;;12.40;62.40;;;;;;5080504;28;19925;-62
2024/03/10 11:13:25;;;;;;;;;;;12.60;63.00;;;;;;5076643;28;19924;-61
2024/03/10 11:16:03;;;;;;;;;;;12.60;63.70;;;;;;5079301;28;19973;-61
2024/03/10 11:18:38;;;;;;;;;;;12.70;63.40;;;;;;5075006;28;19924;-60
2024/03/10 11:21:12;;;;;;;;;;;12.80;62.80;;;;;;5076112;28;19929;-64
2024/03/10 11:23:48;;;;;;;;;;;12.80;63.40;;;;;;5079893;28;20434;-62
2024/03/10 11:26:24;;;;;;;;;;;12.90;63.00;;;;;;5079049;28;20010;-61
2024/03/10 11:28:58;;;;;;;;;;;12.90;62.80;;;;;;5077012;28;20445;-62
2024/03/10 11:31:38;;;;;;;;;;;12.90;61.80;;;;;;5078059;28;19935;-61
2024/03/10 11:34:13;;;;;;;;;;;12.90;62.90;;;;;;5080126;28;19924;-62
2024/03/10 11:36:47;;;;;;;;;;;12.90;61.70;;;;;;5076162;28;20402;-63
2024/03/10 11:39:21;;;;;;;;;;;13.00;61.10;;;;;;5078811;28;19940;-61
2024/03/10 11:41:55;;;;;;;;;;;13.00;61.70;;;;;;5079669;28;19935;-62
2024/03/10 11:44:28;;;;;;;;;;;13.10;60.90;;;;;;5078007;28;20374;-61
2024/03/10 11:47:02;;;;;;;;;;;13.10;61.00;;;;;;5076183;28;19928;-63
2024/03/10 11:49:36;;;;;;;;;;;13.10;60.90;;;;;;5077568;28;19932;-60
2024/03/10 11:52:12;;;;;;;;;;;13.10;61.10;;;;;;5077892;28;19924;-62
2024/03/10 11:54:55;;;;;;;;;;;13.20;60.40;;;;;;5078316;28;20007;-61
2024/03/10 11:57:28;;;;;;;;;;;13.20;61.50;;;;;;5078245;28;19963;-61
2024/03/10 12:00:04;;;;;;;;;;;13.20;60.30;;;;;;5077249;28;20014;-61
2024/03/10 12:02:38;;;;;;;;;;;13.30;58.70;;;;;;5079005;28;19929;-62
2024/03/10 12:05:15;;;;;;;;;;;13.40;58.50;;;;;;5075120;28;19974;-61
2024/03/10 12:07:49;;;;;;;;;;;13.40;59.20;;;;;;5075909;28;19935;-62
2024/03/10 12:10:21;;;;;;;;;;;13.40;59.30;;;;;;5079460;28;20295;-61
2024/03/10 12:12:54;;;;;;;;;;;13.40;59.80;;;;;;5075903;28;20012;-61
2024/03/10 12:15:28;;;;;;;;;;;13.40;59.90;;;;;;5078314;28;19925;-62
2024/03/10 12:18:04;;;;;;;;;;;13.40;59.20;;;;;;5077230;28;19932;-68
2024/03/10 12:20:37;;;;;;;;;;;13.40;59.00;;;;;;5072259;28;19925;-68
2024/03/10 12:23:12;;;;;;;;;;;13.50;60.30;;;;;;5078223;28;19933;-68
2024/03/10 12:25:46;;;;;;;;;;;13.50;60.30;;;;;;5078726;28;19975;-68
2024/03/10 12:28:19;;;;;;;;;;;13.60;59.10;;;;;;5079077;28;19970;-67
2024/03/10 12:30:57;;;;;;;;;;;13.60;58.80;;;;;;5077222;28;19934;-68
2024/03/10 12:33:30;;;;;;;;;;;13.60;60.00;;;;;;5077980;28;20011;-67
2024/03/10 12:36:04;;;;;;;;;;;13.60;60.10;;;;;;5080263;28;19935;-68
2024/03/10 12:38:39;;;;;;;;;;;13.60;59.20;;;;;;5076681;28;19928;-68
2024/03/10 12:41:14;;;;;;;;;;;13.60;59.30;;;;;;5077751;28;19955;-68
2024/03/10 12:43:48;;;;;;;;;;;13.60;59.60;;;;;;5078153;28;20018;-67
2024/03/10 12:46:22;;;;;;;;;;;13.60;58.80;;;;;;5074793;28;20012;-69
2024/03/10 12:48:55;;;;;;;;;;;13.60;58.00;;;;;;5077905;28;19925;-67
2024/03/10 12:51:28;;;;;;;;;;;13.70;57.50;;;;;;5075451;28;19924;-68
2024/03/10 12:54:01;;;;;;;;;;;13.60;56.90;;;;;;5075417;28;19928;-68
2024/03/10 12:56:35;;;;;;;;;;;13.70;57.40;;;;;;5078052;28;19935;-67
2024/03/10 12:59:10;;;;;;;;;;;13.70;57.20;;;;;;5077600;28;19928;-69
2024/03/10 13:01:44;;;;;;;;;;;13.70;57.50;;;;;;5078816;28;20287;-69
2024/03/10 13:04:17;;;;;;;;;;;13.70;58.10;;;;;;5077216;28;20013;-68
2024/03/10 13:06:50;;;;;;;;;;;13.80;58.80;;;;;;5076900;28;19932;-68
2024/03/10 13:09:23;;;;;;;;;;;13.80;58.20;;;;;;5078273;28;19981;-69
2024/03/10 13:11:53;;;;;;;;;;;13.80;57.50;;;;;;5078262;28;19924;-68
2024/03/10 13:14:27;;;;;;;;;;;13.80;57.70;;;;;;5077141;28;19928;-67
2024/03/10 13:17:03;;;;;;;;;;;13.90;56.80;;;;;;5078011;28;19931;-68
2024/03/10 13:19:37;;;;;;;;;;;13.90;56.50;;;;;;5075770;28;19973;-67
2024/03/10 13:22:10;;;;;;;;;;;13.80;56.70;;;;;;5075844;28;19935;-67
2024/03/10 13:24:43;;;;;;;;;;;13.80;57.20;;;;;;5075917;28;19932;-69
2024/03/10 13:27:17;;;;;;;;;;;13.80;57.30;;;;;;5077609;28;20435;-75
2024/03/10 13:29:51;;;;;;;;;;;13.80;57.70;;;;;;5075536;28;19939;-69
2024/03/10 13:32:24;;;;;;;;;;;13.80;57.20;;;;;;5076989;28;19928;-71
2024/03/10 13:34:52;;;;;;;;;;;13.80;57.50;;;;;;5077531;28;19929;-69
2024/03/10 13:37:26;;;;;;;;;;;13.70;57.10;;;;;;5077386;28;19924;-68
2024/03/10 13:40:03;;;;;;;;;;;13.70;58.10;;;;;;5072024;28;20394;-69
2024/03/10 13:42:38;;;;;;;;;;;13.70;57.60;;;;;;5074547;28;19935;-68
2024/03/10 13:45:11;;;;;;;;;;;13.70;57.40;;;;;;5079134;28;20333;-69
2024/03/10 13:47:44;;;;;;;;;;;13.60;58.00;;;;;;5075628;28;19928;-68
2024/03/10 13:50:19;;;;;;;;;;;13.60;58.90;;;;;;5076624;28;19977;-67
2024/03/10 13:52:46;;;;;;;;;;;13.60;58.80;;;;;;5076573;28;20375;-68
2024/03/10 13:55:20;;;;;;;;;;;13.60;58.70;;;;;;5076228;28;19931;-67
2024/03/10 13:57:55;;;;;;;;;;;13.60;59.00;;;;;;5077566;28;20340;-69
2024/03/10 14:00:30;;;;;;;;;;;13.60;58.20;;;;;;5076072;28;19924;-69
2024/03/10 14:03:05;;;;;;;;;;;13.60;58.60;;;;;;5076181;28;19951;-67
2024/03/10 14:05:39;;;;;;;;;;;13.60;58.60;;;;;;5078633;28;19928;-69
2024/03/10 14:08:12;;;;;;;;;;;13.50;58.40;;;;;;5075038;28;19932;-69
2024/03/10 14:10:45;;;;;;;;;;;13.40;58.90;;;;;;5076283;28;20017;-69
2024/03/10 14:13:20;;;;;;;;;;;13.50;58.50;;;;;;5076169;28;19924;-68
2024/03/10 14:15:54;;;;;;;;;;;13.50;58.30;;;;;;5075974;28;19952;-69
2024/03/10 14:18:27;;;;;;;;;;;13.50;59.40;;;;;;5076871;28;19928;-68
2024/03/10 14:21:01;;;;;;;;;;;13.40;58.20;;;;;;5076073;28;19928;-67
2024/03/10 14:23:28;;;;;;;;;;;13.40;59.50;;;;;;5077117;28;20379;-68
2024/03/10 14:26:04;;;;;;;;;;;13.30;58.60;;;;;;5074684;28;19932;-68
2024/03/10 14:28:32;;;;;;;;;;;13.40;58.80;;;;;;5075597;28;19928;-68
2024/03/10 14:31:07;;;;;;;;;;;13.40;59.30;;;;;;5075869;28;19931;-68
2024/03/10 14:33:40;;;;;;;;;;;13.40;59.10;;;;;;5076500;28;20275;-69
2024/03/10 14:36:14;;;;;;;;;;;13.40;58.60;;;;;;5074056;28;19932;-69
2024/03/10 14:38:47;;;;;;;;;;;13.50;59.20;;;;;;5090919;28;20477;-67
2024/03/10 14:41:20;;;;;;;;;;;13.50;59.30;;;;;;5078837;28;19924;-68
2024/03/10 14:43:54;;;;;;;;;;;13.50;60.20;;;;;;5076002;28;19924;-66
2024/03/10 14:46:28;;;;;;;;;;;13.50;59.40;;;;;;5076985;28;19929;-66
2024/03/10 14:49:03;;;;;;;;;;;13.50;59.00;;;;;;5075473;28;20018;-67
2024/03/10 14:51:37;;;;;;;;;;;13.40;59.20;;;;;;5073549;28;19982;-67
2024/03/10 14:54:11;;;;;;;;;;;13.50;59.50;;;;;;5075478;28;20345;-67
2024/03/10 14:56:38;;;;;;;;;;;13.50;60.10;;;;;;5073763;28;19928;-67
2024/03/10 14:59:13;;;;;;;;;;;13.50;60.30;;;;;;5074020;28;20337;-67
2024/03/10 15:01:48;;;;;;;;;;;13.50;60.20;;;;;;5076433;28;20375;-67
2024/03/10 15:04:22;;;;;;;;;;;13.40;60.30;;;;;;5078792;28;19985;-67
2024/03/10 15:06:58;;;;;;;;;;;13.40;60.70;;;;;;5081134;28;19928;-67
2024/03/10 15:09:31;;;;;;;;;;;13.50;60.50;;;;;;5079214;28;20529;-67
2024/03/10 15:12:06;;;;;;;;;;;13.40;60.70;;;;;;5081144;28;20387;-66
2024/03/10 15:14:41;;;;;;;;;;;13.40;61.10;;;;;;5075793;28;19928;-68
2024/03/10 15:17:15;;;;;;;;;;;13.50;61.30;;;;;;5078845;28;19931;-66
2024/03/10 15:19:49;;;;;;;;;;;13.50;61.70;;;;;;5077809;28;19928;-67
2024/03/10 15:22:22;;;;;;;;;;;13.50;61.50;;;;;;5079150;28;19936;-67
2024/03/10 15:24:56;;;;;;;;;;;13.50;61.70;;;;;;5080473;28;19929;-67
2024/03/10 15:27:30;;;;;;;;;;;13.60;62.10;;;;;;5078360;28;19924;-68
2024/03/10 15:30:06;;;;;;;;;;;13.60;62.90;;;;;;5079187;28;20286;-67
2024/03/10 15:32:39;;;;;;;;;;;13.60;61.50;;;;;;5077428;28;19948;-68
2024/03/10 15:35:12;;;;;;;;;;;13.60;61.50;;;;;;5077842;28;20343;-66
2024/03/10 15:37:45;;;;;;;;;;;13.50;61.80;;;;;;5071463;28;19970;-67
2024/03/10 15:40:19;;;;;;;;;;;13.50;62.00;;;;;;5078221;28;20015;-66
2024/03/10 15:42:52;;;;;;;;;;;13.60;61.40;;;;;;5078312;28;19929;-67
2024/03/10 15:45:26;;;;;;;;;;;13.50;61.30;;;;;;5076868;28;19964;-68
2024/03/10 15:48:00;;;;;;;;;;;13.50;61.10;;;;;;5078824;28;19964;-67
2024/03/10 15:50:33;;;;;;;;;;;13.40;61.20;;;;;;5075034;28;20290;-67
2024/03/10 15:53:09;;;;;;;;;;;13.40;61.50;;;;;;5093176;28;19925;-68
2024/03/10 15:55:44;;;;;;;;;;;13.30;62.30;;;;;;5077363;28;19935;-68
2024/03/10 15:58:10;;;;;;;;;;;13.30;62.40;;;;;;5077416;28;19959;-67
2024/03/10 16:00:45;;;;;;;;;;;13.30;62.50;;;;;;5074654;28;19932;-66
2024/03/10 16:03:21;;;;;;;;;;;13.20;63.10;;;;;;5076095;28;19948;-68
2024/03/10 16:05:56;;;;;;;;;;;13.20;62.90;;;;;;5077050;28;20278;-68
2024/03/10 16:08:32;;;;;;;;;;;13.10;63.30;;;;;;5078086;28;19925;-67
2024/03/10 16:11:11;;;;;;;;;;;13.10;63.80;;;;;;5077061;28;19924;-66
2024/03/10 16:13:48;;;;;;;;;;;13.00;63.50;;;;;;5074764;28;19932;-67
2024/03/10 16:16:22;;;;;;;;;;;13.00;63.90;;;;;;5077273;28;20386;-66
2024/03/10 16:18:59;;;;;;;;;;;12.90;64.90;;;;;;5076084;28;19925;-66
2024/03/10 16:21:36;;;;;;;;;;;12.90;64.40;;;;;;5074547;28;20114;-67
2024/03/10 16:24:13;;;;;;;;;;;12.80;64.30;;;;;;5076827;28;19932;-67